Archival Weather

Snohomish County (Paine Fld)

Everett, Washington (KPAE)

Report from: Saturday, November 11, 2023 12:53 PM PST
Current time: Sunday, June 16, 2024 11:56 PM PDT

Current weather – Weather history – Daily summaries
Weather forecast

Temperature10.6°C (51.1°F)
Dew point6.7°C (44.1°F)
Winds 14 kts (7.2 m/s, 16.1 mph) South-Southwest (200°)
Wind gusts 21 kts (10.8 m/s, 24.2 mph)
Visibility10 mi. (16.1 km)
Clouds Ceiling: Broken clouds 1,200 ft. (366 m)
Overcast 8,000 ft. (2,438 m)
Altimeter29.91 in.Hg (1013 mB)
Relative humidity77 %
Density altitude-368 ft. (-112 m)
Sea-level pressure101.3 kPa (1013 mB, 29.91 in.Hg)
Remarks Automated weather observing station with precipitation discriminator
Pressure rising
Flight conditions Marginal Visual Meteorological Conditions
Raw dataKPAE 112053Z 20014G21KT 10SM BKN012 OVC080 11/07 A2991 RMK AO2 SLP128 T01060067 52022
An error has occurred. This application may no longer respond until reloaded. Reload 🗙